KHOT/HOT METAR and TAF weather

Enter ICAO airport designator
Station Type Date Time Source
KHOT METAR 2021/09/16 21:53 UTC NOAA

KHOT 162153Z AUTO 10008KT 10SM SCT065 31/18 A2990 RMK AO2 SLP116 T03060178


Station Type Date Time Source
KHOT Decoded METAR 2021/09/16 21:53 UTC NOAA

HOT SPRINGS MEMORIAL FIELD, AR, United States (KHOT) 34-29N 093-06W 162M
Sep 16, 2021 - 05:53 PM EDT / 2021.09.16 2153 UTC
Wind: from the E (100 degrees) at 9 MPH (8 KT):0
Visibility: 10 mile(s):0
Sky conditions: partly cloudy
Temperature: 87.1 F (30.6 C)
Dew Point: 64.0 F (17.8 C)
Relative Humidity: 46%
Pressure (altimeter): 29.9 in. Hg (1012 hPa)
ob: KHOT 162153Z AUTO 10008KT 10SM SCT065 31/18 A2990 RMK AO2 SLP116 T03060178
cycle: 22

Station Type Date Time Source
KHOT TAF 2021/09/16 18:30 UTC NOAA

TAF KHOT 161728Z 1618/1718 09007KT P6SM SCT025 BKN040
FM161900 10009KT P6SM SCT040
FM170900 VRB04KT P6SM BKN015
FM171300 07005KT 5SM BR OVC010

Example: see airport list